Station: Gympie  

  Atmospheric Gas Attenuation - ITU Rec 676-11   ----------------- dB/100km -----------------
Date Time Temp RH % AH g/m3 Dew Point Wind Direction Speed kph Gust kph Barometer mB Rainfall Since 9am 24GHz 47GHz 76GHz 122GHz 134GHz 241GHz
08/05 12:30 21.8 29 5.56 3 4 9 1018.6 0 12.9 19.7 25.9 67.3 55.1 187.4
08/05 12:20 21.6 29 5.5 2.8 6 6 1018.7 0 12.7 19.6 25.8 66.9 54.6 185.6
08/05 12:10 21.9 30 5.79 3.5 6 6 1018.9 0 13.3 20.0 26.6 69.2 57.5 195.8
08/05 12:00 21.2 29 5.37 2.5 4 7 1019.2 0 12.5 19.6 25.5 66.2 53.5 181.7
08/05 11:50 20.9 31 5.65 3.1 4 6 1019.6 0 13.1 20.0 26.5 68.9 56.7 193.0
08/05 11:40 20.9 30 5.46 2.7 6 7 1019.7 0 12.7 19.8 25.9 67.2 54.7 185.8
08/05 11:30 20.8 30 5.43 2.6 6 11 1019.6 0 12.6 19.7 25.8 67.0 54.4 184.9
08/05 11:20 20.4 28 4.95 1.3 6 9 1019.8 0 11.6 19.2 24.4 63.2 49.6 167.8
08/05 11:10 20.4 25 4.42 -0.3 7 11 1020 0 10.5 18.5 22.7 58.8 44.0 148.3
08/05 11:00 20.3 29 5.1 1.7 9 15 1020.1 0 11.9 19.4 24.9 64.6 51.2 173.7
08/05 10:50 19.8 28 4.78 0.7 6 9 1020.4 0 11.3 19.1 24.0 62.3 48.1 162.8
08/05 10:40 19.9 31 5.33 2.2 11 13 1020.6 0 12.4 19.8 25.8 67.0 54.0 183.3
08/05 10:30 19.7 33 5.6 3 6 9 1020.6 0 13.0 20.2 26.7 69.5 57.0 194.1
08/05 10:20 19.1 35 5.74 3.3 6 7 1020.6 0 13.3 20.6 27.4 71.3 59.0 200.9
08/05 10:10 19 38 6.19 4.3 6 7 1020.9 0 14.3 21.2 29.0 75.5 64.1 218.9
08/05 10:00 18.6 36 5.73 3.3 4 7 1021 0 13.3 20.7 27.5 71.7 59.3 201.8
08/05 09:50 18 37 5.68 3.1 4 6 1021 0 13.2 20.7 27.6 71.7 59.2 201.3
08/05 09:40 17.5 35 5.22 1.8 7 9 1020.9 0 12.3 20.2 26.2 68.0 54.4 184.4
08/05 09:30 17.4 37 5.48 2.6 6 11 1020.9 0 12.8 20.6 27.1 70.4 57.3 194.8
08/05 09:20 16.8 37 5.29 2 7 11 1021.1 0 12.5 20.5 26.6 69.2 55.6 188.8
08/05 09:10 16.3 38 5.27 1.9 9 11 1021.1 0 12.4 20.5 26.7 69.5 55.8 189.1
08/05 09:00 15.8 38 5.12 1.5 6 9 1021 0 12.1 20.4 26.4 68.5 54.4 184.3
08/05 08:50 15.2 39 5.06 1.3 7 11 1021 0 12.0 20.5 26.4 68.5 54.1 183.2
08/05 08:40 15.1 43 5.55 2.6 6 7 1021 0 13.1 21.2 28.1 73.1 59.8 203.3
08/05 08:30 14.6 40 5.01 1.2 6 11 1021 0 11.9 20.6 26.4 68.5 54.0 182.6
08/05 08:20 14.1 43 5.22 1.7 7 9 1021.2 0 12.4 21.0 27.3 70.9 56.7 192.3
08/05 08:10 13.9 43 5.16 1.5 7 9 1020.9 0 12.3 20.9 27.1 70.5 56.2 190.2
08/05 08:00 13.2 43 4.94 0.9 4 9 1020.9 0 11.8 20.8 26.6 69.0 54.1 182.9
08/05 07:50 12.7 47 5.23 1.7 2 4 1020.9 0 12.5 21.3 27.8 72.2 57.8 196.0
08/05 07:40 12.8 48 5.38 2 2 2 1020.7 0 12.8 21.5 28.3 73.5 59.5 201.9
08/05 07:30 12.1 47 5.04 1.1 0 0 1020.7 0 12.1 21.1 27.3 70.9 56.0 189.5
08/05 07:20 11.4 55 5.65 2.7 0 2 1020.6 0 13.4 22.2 29.8 77.5 63.8 217.0
08/05 07:10 11 53 5.31 1.8 2 2 1020.5 0 12.7 21.8 28.6 74.5 60.0 203.4
08/05 07:00 10.4 57 5.49 2.3 2 6 1020.4 0 13.1 22.2 29.5 76.8 62.7 212.7
08/05 06:50 10.2 56 5.33 1.8 2 2 1020.2 0 12.8 22.0 29.0 75.4 60.9 206.3
08/05 06:40 10.1 58 5.49 2.2 0 0 1019.9 0 13.1 22.3 29.6 77.1 62.9 213.4
08/05 06:30 10.4 52 5.01 1 2 2 1019.8 0 12.1 21.5 27.7 72.0 56.8 192.0
08/05 06:20 10.7 49 4.81 0.4 2 4 1019.5 0 11.6 21.1 26.9 69.8 54.2 182.9
08/05 06:10 10.7 51 5.01 1 4 4 1019.5 0 12.1 21.4 27.6 71.8 56.6 191.3
08/05 06:00 10.7 55 5.4 2 4 6 1019.6 0 12.9 22.0 29.0 75.6 61.3 207.9
08/05 05:50 11.6 45 4.68 0 4 6 1019.5 0 11.3 20.7 26.1 67.8 52.0 175.5
08/05 05:40 11.4 48 4.93 0.8 4 6 1019.4 0 11.9 21.1 27.1 70.4 55.1 186.3
08/05 05:30 11.4 50 5.13 1.4 6 9 1019.2 0 12.3 21.4 27.8 72.3 57.5 194.6
08/05 05:20 11.3 51 5.2 1.5 4 6 1019.1 0 12.4 21.5 28.1 73.0 58.4 197.8
08/05 05:10 11.2 59 5.98 3.5 6 7 1019 0 14.1 22.7 31.0 80.8 68.0 231.5
08/05 05:00 12.1 49 5.26 1.7 2 6 1019.1 0 12.5 21.4 28.0 72.9 58.5 198.4
08/05 04:50 12.4 48 5.25 1.7 4 4 1018.8 0 12.5 21.3 27.9 72.5 58.2 197.2
08/05 04:40 12.4 48 5.25 1.7 4 6 1018.4 0 12.5 21.3 27.9 72.5 58.1 197.1
08/05 04:30 12.7 47 5.23 1.7 6 11 1018.4 0 12.5 21.2 27.7 72.0 57.7 195.5
08/05 04:20 12.9 46 5.18 1.5 2 4 1018.4 0 12.4 21.1 27.4 71.3 57.0 193.0
08/05 04:10 13 47 5.33 1.9 7 9 1018.1 0 12.7 21.3 27.9 72.7 58.6 198.9
08/05 04:00 13.2 47 5.4 2.1 9 17 1018 0 12.8 21.3 28.1 73.1 59.3 201.3
08/05 03:50 13.4 46 5.35 2 7 9 1018 0 12.7 21.2 27.9 72.5 58.6 198.7
08/05 03:40 13.3 50 5.78 3.3 9 13 1018.1 0 13.6 21.9 29.4 76.7 63.8 216.9
08/05 03:30 13.3 49 5.66 2.8 6 9 1018.3 0 13.4 21.7 29.0 75.6 62.3 211.9
08/05 03:20 13.6 47 5.53 2.5 4 4 1018.3 0 13.1 21.4 28.4 74.0 60.6 205.7
08/05 03:10 14.1 46 5.58 2.6 7 11 1018.3 0 13.2 21.4 28.5 74.1 60.8 206.5
08/05 03:00 14.5 45 5.6 2.7 9 20 1018.4 0 13.2 21.3 28.4 73.9 60.7 206.3
08/05 02:50 14.8 44 5.57 2.6 9 17 1018.3 0 13.1 21.2 28.2 73.3 60.1 204.3
08/05 02:40 14.8 46 5.83 3.3 9 11 1018.2 0 13.7 21.6 29.1 75.8 63.2 215.0
08/05 02:30 15.1 51 6.58 5 7 19 1018.2 0 15.2 22.6 31.7 82.7 71.8 245.5
08/05 02:20 15.4 50 6.57 5 6 9 1018.1 0 15.2 22.5 31.5 82.3 71.4 244.2
08/05 02:10 15.7 53 7.09 6.1 7 13 1018.1 0 16.3 23.2 33.3 87.1 77.5 265.3
08/05 02:00 15.7 53 7.09 6.2 11 17 1017.9 0 16.3 23.2 33.3 87.1 77.4 265.3
08/05 01:50 15.5 55 7.27 6.7 11 17 1017.8 0 16.7 23.5 34.1 89.1 79.8 273.6
08/05 01:40 15.7 54 7.22 6.4 9 11 1018.1 0 16.6 23.4 33.8 88.4 79.0 270.9
08/05 01:30 16.1 52 7.13 6.3 7 13 1018.2 0 16.4 23.2 33.3 87.1 77.6 265.7
08/05 01:20 16.1 52 7.13 6.2 7 11 1018 0 16.4 23.2 33.3 87.0 77.5 265.7
08/05 01:10 16.3 52 7.21 6.4 9 13 1018.1 0 16.5 23.2 33.5 87.6 78.3 268.4
08/05 01:00 16.1 53 7.26 6.5 6 17 1018.1 0 16.6 23.4 33.8 88.3 79.1 271.2
08/05 00:50 16.5 50 7.02 6 2 2 1018.2 0 16.1 22.9 32.7 85.6 75.8 259.7
08/05 00:40 16.4 51 7.12 6.2 0 0 1018.1 0 16.3 23.1 33.1 86.6 77.1 264.3
08/05 00:30 16.6 51 7.2 6.4 7 19 1018 0 16.5 23.1 33.3 87.2 77.9 267.0
08/05 00:20 16.8 50 7.15 6.3 6 13 1018.1 0 16.4 23.0 33.1 86.5 77.1 264.2
08/05 00:10 16.9 50 7.19 6.4 9 15 1018 0 16.5 23.0 33.2 86.8 77.5 265.6
08/05 00:00 16.8 50 7.15 6.3 7 19 1018.1 0 16.4 23.0 33.1 86.5 77.1 264.2
07/05 23:50 16.6 51 7.2 6.4 9 15 1018 0 16.5 23.1 33.3 87.2 77.9 267.0
07/05 23:40 16.5 52 7.3 6.6 11 13 1017.9 0 16.7 23.3 33.8 88.3 79.2 271.6
07/05 23:30 16.3 56 7.77 7.5 4 9 1018 0 17.7 24.1 35.6 93.2 85.2 292.5
07/05 23:20 16.8 50 7.15 6.3 4 4 1018.1 0 16.4 23.0 33.1 86.5 77.1 264.2
07/05 23:10 17.2 50 7.32 6.7 7 11 1017.9 0 16.7 23.2 33.5 87.7 78.8 270.1
07/05 23:00 16.9 51 7.33 6.7 7 13 1018 0 16.7 23.3 33.7 88.1 79.2 271.5
07/05 22:50 15.5 69 9.12 9.8 6 7 1018 0 20.6 26.4 41.2 108.2 103.5 356.3
07/05 22:40 16.9 55 7.91 8 6 6 1017.9 0 18.0 24.1 35.9 93.9 86.3 296.4
07/05 22:30 17.4 56 8.3 8.5 4 6 1017.9 0 18.8 24.6 37.1 97.2 90.6 311.5
07/05 22:20 17.9 50 7.63 7.3 2 4 1017.8 0 17.3 23.4 34.4 90.0 81.8 280.8
07/05 22:10 17.9 51 7.79 7.6 4 6 1017.7 0 17.7 23.7 35.0 91.5 83.7 287.5
07/05 22:00 18 52 7.99 8 6 11 1017.7 0 18.1 23.9 35.7 93.4 86.1 295.7
07/05 21:50 17.9 51 7.79 7.6 11 19 1017.8 0 17.7 23.7 35.0 91.5 83.7 287.6
07/05 21:40 17.3 66 9.72 10.9 4 6 1017.6 0 21.8 26.8 42.7 112.1 108.9 375.5
07/05 21:30 17 72 10.42 11.9 4 6 1017.6 0 23.3 28.1 45.7 120.1 118.6 409.6
07/05 21:20 18.6 51 8.12 8.5 4 4 1017.5 0 18.3 24.0 35.9 94.0 87.0 299.0
07/05 21:10 19.6 47 7.93 8 4 4 1017.5 0 17.9 23.4 34.7 91.0 83.6 287.3
07/05 21:00 19.4 49 8.17 8.4 6 7 1017.6 0 18.4 23.8 35.7 93.5 86.7 298.2
07/05 20:50 19 50 8.15 8.3 7 7 1017.4 0 18.4 23.9 35.8 93.8 86.9 298.8
07/05 20:40 19 57 9.29 10.3 6 7 1017.4 0 20.8 25.6 40.1 105.2 101.0 348.3
07/05 20:30 19.3 52 8.62 9.2 4 6 1017.4 0 19.4 24.5 37.4 98.1 92.3 317.8
07/05 20:20 19.3 56 9.29 10.3 4 4 1017.3 0 20.8 25.6 39.9 104.8 100.6 346.9
07/05 20:10 19 59 9.61 10.8 4 4 1017.1 0 21.5 26.1 41.3 108.5 105.1 362.4
07/05 20:00 19.4 61 10.18 11.7 6 7 1017 0 22.7 26.9 43.3 113.9 111.8 386.2

Last Refresh: 08-May-2026 12:09:24

Bureau of Meteorology